Terminal Aerodrome Forecast
Issued by NWS Billings, MT

Home | Current Version | Previous Version | Text Only | Print | Product List | Glossary On
Versions: 1 2 3 4 5 6 7 8 9 10 11 12 13 14
000
FTUS45 KBYZ 192327
TAFMLS
TAF
KMLS 192327Z 2000/2024 25008KT P6SM SKC
     FM200200 14007KT P6SM SCT250
     FM201200 29012KT P6SM BKN100
     FM201600 29018G28KT P6SM BKN100=

USA.gov is the U.S. government's official web portal to all federal, state and local government web resources and services.